Time;durP1;ratioP1;P1;durP2;ratioP2;P2;SDS_P1;SDS_P2;PMS_P1;PMS_P2;Temp;Humidity;BMP_temperature;BMP_pressure;BME280_temperature;BME280_humidity;BME280_pressure;Samples;Min_cycle;Max_cycle;Signal;HPM_P1;HPM_P2
2023/03/09 00:02:06;;;;;;;3.30;0.90;;;;;;;8.71;100.00;96443.44;4915995;28;20503;-59
2023/03/09 00:04:31;;;;;;;2.67;0.95;;;;;;;8.74;100.00;96449.13;4923456;29;20089;-58
2023/03/09 00:06:57;;;;;;;2.00;1.05;;;;;;;8.77;100.00;96464.81;4939408;29;20028;-58
2023/03/09 00:09:22;;;;;;;4.53;1.42;;;;;;;8.79;100.00;96459.16;4933506;29;20031;-58
2023/03/09 00:11:49;;;;;;;4.18;2.00;;;;;;;8.83;100.00;96456.78;4930553;28;20027;-58
2023/03/09 00:14:16;;;;;;;2.92;0.90;;;;;;;8.79;100.00;96451.09;4925938;28;20027;-57
2023/03/09 00:16:42;;;;;;;5.72;1.33;;;;;;;8.82;100.00;96482.13;4928550;28;20028;-58
2023/03/09 00:19:07;;;;;;;2.92;1.83;;;;;;;8.82;100.00;96496.41;4928564;29;20070;-57
2023/03/09 00:21:37;;;;;;;2.42;0.90;;;;;;;8.77;100.00;96513.31;4917346;28;20093;-57
2023/03/09 00:24:04;;;;;;;;;;;;;;;8.72;100.00;96504.34;4926134;28;20024;-57
2023/03/09 00:26:29;;;;;;;2.00;1.08;;;;;;;8.72;100.00;96501.66;4920482;28;19950;-57
2023/03/09 00:28:55;;;;;;;2.30;0.80;;;;;;;8.78;100.00;96533.03;4925772;28;20031;-57
2023/03/09 00:31:20;;;;;;;2.53;0.70;;;;;;;8.84;100.00;96564.41;4922479;28;20074;-57
2023/03/09 00:33:49;;;;;;;0.77;0.35;;;;;;;8.63;100.00;96541.72;4918158;29;20031;-57
2023/03/09 00:36:15;;;;;;;1.65;0.40;;;;;;;8.61;100.00;96560.00;4926367;28;20064;-59
2023/03/09 00:38:41;;;;;;;1.63;0.38;;;;;;;8.60;100.00;96525.22;4931673;29;20438;-58
2023/03/09 00:41:06;;;;;;;3.78;0.47;;;;;;;8.48;100.00;96544.16;4938757;29;20034;-58
2023/03/09 00:43:31;;;;;;;3.72;0.65;;;;;;;8.34;100.00;96531.00;4927378;29;20085;-58
2023/03/09 00:45:57;;;;;;;0.98;0.20;;;;;;;8.27;100.00;96521.44;4923811;28;20030;-58
2023/03/09 00:48:23;;;;;;;0.57;0.35;;;;;;;8.20;100.00;96518.91;4916968;28;20032;-58
2023/03/09 00:50:49;;;;;;;0.57;0.25;;;;;;;8.13;100.00;96515.56;4920828;29;20039;-58
2023/03/09 00:53:14;;;;;;;1.17;0.38;;;;;;;8.06;100.00;96506.81;4932226;29;20032;-58
2023/03/09 00:55:40;;;;;;;0.88;0.20;;;;;;;8.00;100.00;96511.31;4939732;28;20085;-57
2023/03/09 00:58:05;;;;;;;1.00;0.20;;;;;;;7.92;100.00;96495.56;4927075;29;20035;-57
2023/03/09 01:00:33;;;;;;;0.95;0.20;;;;;;;7.89;100.00;96490.66;4925667;28;20472;-61
2023/03/09 01:02:59;;;;;;;2.60;0.35;;;;;;;7.82;100.00;96498.06;4926862;29;20059;-62
2023/03/09 01:05:25;;;;;;;0.98;0.20;;;;;;;7.80;100.00;96505.56;4941097;29;20055;-62
2023/03/09 01:07:51;;;;;;;0.98;0.20;;;;;;;7.77;100.00;96512.25;4929538;28;20447;-62
2023/03/09 01:10:16;;;;;;;1.95;0.20;;;;;;;7.82;100.00;96515.03;4924092;29;20028;-62
2023/03/09 01:12:42;;;;;;;1.98;0.30;;;;;;;7.81;100.00;96518.78;4921347;28;20038;-63
2023/03/09 01:15:08;;;;;;;0.63;0.40;;;;;;;7.83;100.00;96513.97;4925015;29;20039;-62
2023/03/09 01:17:34;;;;;;;1.25;0.90;;;;;;;7.86;100.00;96516.19;4928610;29;20038;-62
2023/03/09 01:19:59;;;;;;;1.67;0.40;;;;;;;7.86;100.00;96515.38;4932518;29;20023;-62
2023/03/09 01:22:25;;;;;;;3.33;0.50;;;;;;;7.82;100.00;96525.78;4924555;29;20031;-62
2023/03/09 01:24:50;;;;;;;2.17;0.50;;;;;;;7.81;100.00;96529.56;4917948;29;20497;-61
2023/03/09 01:27:16;;;;;;;1.45;0.40;;;;;;;7.81;100.00;96536.81;4929800;29;20024;-62
2023/03/09 01:29:42;;;;;;;2.88;1.23;;;;;;;7.89;100.00;96536.44;4927532;29;20024;-62
2023/03/09 01:32:07;;;;;;;3.53;2.20;;;;;;;8.01;100.00;96533.66;4924655;28;20027;-66
2023/03/09 01:34:33;;;;;;;3.95;1.33;;;;;;;8.07;100.00;96532.69;4932016;29;20035;-63
2023/03/09 01:36:58;;;;;;;3.22;0.60;;;;;;;8.17;100.00;96538.22;4929055;29;20040;-63
2023/03/09 01:39:23;;;;;;;0.95;0.40;;;;;;;8.38;100.00;96541.28;4945902;28;20116;-62
2023/03/09 01:41:49;;;;;;;2.83;0.60;;;;;;;8.44;100.00;96541.16;4927681;28;20198;-62
2023/03/09 01:44:14;;;;;;;3.70;0.70;;;;;;;8.45;100.00;96545.47;4934244;28;20024;-62
2023/03/09 01:46:48;;;;;;;0.50;0.30;;;;;;;8.52;100.00;96543.44;4912939;29;20530;-62
2023/03/09 01:49:40;;;;;;;3.30;0.50;;;;;;;8.72;100.00;96544.78;4921547;29;20046;-62
2023/03/09 01:52:16;;;;;;;2.35;0.40;;;;;;;8.68;100.00;96530.19;4915076;29;20040;-62
2023/03/09 01:54:59;;;;;;;1.02;0.40;;;;;;;8.69;100.00;96518.34;4927059;29;20036;-62
2023/03/09 01:57:32;;;;;;;0.75;0.30;;;;;;;8.70;100.00;96523.50;4922117;28;20474;-64
2023/03/09 02:00:05;;;;;;;0.43;0.20;;;;;;;8.64;100.00;96523.66;4920314;28;20063;-62
2023/03/09 02:02:33;;;;;;;3.38;0.52;;;;;;;8.58;100.00;96538.13;4929932;29;20027;-61
2023/03/09 02:05:03;;;;;;;2.22;0.85;;;;;;;8.58;100.00;96536.25;4930595;29;20031;-61
2023/03/09 02:07:34;;;;;;;3.70;0.50;;;;;;;8.53;100.00;96547.75;4938688;29;20061;-61
2023/03/09 02:10:22;;;;;;;1.33;0.50;;;;;;;8.64;100.00;96529.84;4922219;28;20375;-61
2023/03/09 02:12:52;;;;;;;2.90;0.50;;;;;;;8.69;100.00;96526.41;4935041;28;20102;-62
2023/03/09 02:15:20;;;;;;;1.75;1.05;;;;;;;8.71;100.00;96517.03;4926013;29;20036;-60
2023/03/09 02:17:46;;;;;;;1.80;0.20;;;;;;;8.71;100.00;96519.72;4928935;28;20047;-61
2023/03/09 02:20:12;;;;;;;3.00;0.50;;;;;;;8.65;100.00;96515.34;4925704;29;20027;-61
2023/03/09 02:22:38;;;;;;;2.15;0.40;;;;;;;8.63;100.00;96511.25;4947182;29;20027;-62
2023/03/09 02:25:23;;;;;;;3.58;0.80;;;;;;;8.55;100.00;96505.22;4935541;28;20129;-61
2023/03/09 02:27:51;;;;;;;3.20;0.70;;;;;;;8.47;100.00;96505.63;4923707;28;20162;-61
2023/03/09 02:30:17;;;;;;;3.85;0.60;;;;;;;8.48;100.00;96504.56;4935906;28;20032;-62
2023/03/09 02:32:43;;;;;;;2.28;0.63;;;;;;;8.44;100.00;96499.94;4919222;29;20034;-61
2023/03/09 02:35:09;;;;;;;2.15;0.60;;;;;;;8.52;100.00;96494.94;4929536;28;20051;-61
2023/03/09 02:37:39;;;;;;;3.58;1.02;;;;;;;8.47;100.00;96486.75;4928762;29;20367;-61
2023/03/09 02:40:15;;;;;;;1.60;0.55;;;;;;;8.46;100.00;96490.53;4921349;29;20032;-61
2023/03/09 02:42:44;;;;;;;0.40;0.30;;;;;;;8.51;100.00;96477.13;4921721;28;20502;-62
2023/03/09 02:45:12;;;;;;;0.77;0.40;;;;;;;8.58;100.00;96498.50;4931117;29;20035;-61
2023/03/09 02:47:38;;;;;;;0.27;0.10;;;;;;;8.63;100.00;96468.94;4931649;28;20028;-61
2023/03/09 02:50:06;;;;;;;0.43;0.20;;;;;;;8.87;100.00;96468.72;4925909;28;20023;-62
2023/03/09 02:52:31;;;;;;;0.35;0.10;;;;;;;8.87;100.00;96471.41;4926094;29;20031;-62
2023/03/09 02:54:57;;;;;;;0.50;0.17;;;;;;;8.48;100.00;96428.28;4953830;23;20131;-78
2023/03/09 02:57:22;;;;;;;1.15;0.30;;;;;;;8.88;100.00;96463.09;4943764;29;20043;-78
2023/03/09 02:59:47;;;;;;;0.95;0.20;;;;;;;8.94;100.00;96480.94;4951357;29;20027;-78
2023/03/09 03:02:13;;;;;;;1.40;0.15;;;;;;;9.04;100.00;96496.44;4956234;28;20148;-78
2023/03/09 03:04:38;;;;;;;2.28;0.30;;;;;;;8.99;100.00;96502.59;4952103;29;20032;-77
2023/03/09 03:07:04;;;;;;;0.30;0.10;;;;;;;8.94;100.00;96513.31;4964143;28;20020;-78
2023/03/09 03:09:30;;;;;;;1.25;0.17;;;;;;;8.77;100.00;96517.91;4933341;28;20038;-78
2023/03/09 03:11:55;;;;;;;2.83;0.22;;;;;;;8.84;100.00;96526.66;4917503;28;20138;-78
2023/03/09 03:14:21;;;;;;;1.48;0.43;;;;;;;8.70;100.00;96558.53;4931022;28;20027;-78
2023/03/09 03:16:46;;;;;;;1.38;0.20;;;;;;;8.61;100.00;96562.69;4941706;28;20063;-78
2023/03/09 03:19:11;;;;;;;0.22;0.10;;;;;;;8.54;100.00;96594.38;4936166;29;20073;-78
2023/03/09 03:21:36;;;;;;;1.80;0.25;;;;;;;8.62;100.00;96599.38;4950463;28;20039;-79
2023/03/09 03:24:02;;;;;;;2.35;0.30;;;;;;;8.31;100.00;96596.13;4937945;28;20089;-78
2023/03/09 03:26:27;;;;;;;1.95;0.20;;;;;;;8.43;100.00;96600.66;4936992;28;20021;-80
2023/03/09 03:28:53;;;;;;;0.40;0.10;;;;;;;8.39;100.00;96599.50;4946016;29;20038;-80
2023/03/09 03:31:18;;;;;;;1.05;0.30;;;;;;;8.25;100.00;96628.59;4950271;28;20032;-79
2023/03/09 03:33:43;;;;;;;0.50;0.20;;;;;;;8.26;100.00;96660.69;4951232;28;20023;-79
2023/03/09 03:36:09;;;;;;;0.70;0.20;;;;;;;8.06;100.00;96663.81;4941728;28;20047;-78
2023/03/09 03:38:34;;;;;;;3.80;0.20;;;;;;;8.07;100.00;96667.34;4947785;28;20030;-79
2023/03/09 03:40:59;;;;;;;1.02;0.22;;;;;;;7.99;100.00;96679.31;4944164;28;20023;-78
2023/03/09 03:43:24;;;;;;;0.95;0.35;;;;;;;7.91;100.00;96690.44;4956615;28;20020;-79
2023/03/09 03:45:50;;;;;;;4.35;0.30;;;;;;;7.82;100.00;96684.63;4953993;28;20027;-78
2023/03/09 03:48:15;;;;;;;2.72;0.32;;;;;;;7.83;100.00;96697.03;4938797;28;20538;-78
2023/03/09 03:50:41;;;;;;;1.48;0.32;;;;;;;7.76;100.00;96709.00;4940840;29;20051;-78
2023/03/09 03:53:06;;;;;;;5.82;0.20;;;;;;;7.73;100.00;96706.75;4947148;28;20090;-78
2023/03/09 03:55:32;;;;;;;0.80;0.20;;;;;;;7.73;100.00;96712.97;4974027;28;20051;-77
2023/03/09 03:57:58;;;;;;;1.25;0.20;;;;;;;7.59;100.00;96695.44;4919859;29;20025;-78
2023/03/09 04:00:24;;;;;;;2.67;0.20;;;;;;;7.62;100.00;96717.31;4932951;28;20038;-77
2023/03/09 04:02:50;;;;;;;0.47;0.20;;;;;;;7.68;100.00;96743.28;4972549;28;20032;-77
2023/03/09 04:05:15;;;;;;;2.03;0.30;;;;;;;7.77;100.00;96764.44;4935754;29;20031;-77
2023/03/09 04:07:41;;;;;;;3.25;0.43;;;;;;;7.73;100.00;96749.81;4934115;29;20027;-78
2023/03/09 04:10:07;;;;;;;2.22;0.38;;;;;;;7.61;100.00;96729.13;4930475;28;20031;-77
2023/03/09 04:12:32;;;;;;;3.20;0.65;;;;;;;7.58;100.00;96756.50;4923557;29;20120;-78
2023/03/09 04:14:57;;;;;;;0.40;0.30;;;;;;;7.49;100.00;96731.00;4937454;28;20109;-80
2023/03/09 04:17:22;;;;;;;2.00;0.43;;;;;;;7.67;100.00;96779.31;4934065;29;20170;-78
2023/03/09 04:19:48;;;;;;;3.65;0.45;;;;;;;7.72;100.00;96792.06;4997349;28;20033;-75
2023/03/09 04:22:19;;;;;;;0.60;0.20;;;;;;;7.77;100.00;96781.41;5016007;28;20025;-79
2023/03/09 04:24:48;;;;;;;0.80;0.20;;;;;;;7.80;100.00;96789.00;5014386;28;20022;-77
2023/03/09 04:27:13;;;;;;;0.50;0.30;;;;;;;7.78;100.00;96779.53;4967582;28;20031;-76
2023/03/09 04:29:39;;;;;;;1.45;0.30;;;;;;;7.80;100.00;96777.44;4928933;28;20035;-77
2023/03/09 04:32:05;;;;;;;2.30;0.40;;;;;;;7.89;100.00;96776.03;4931532;28;20031;-76
2023/03/09 04:34:30;;;;;;;3.25;0.30;;;;;;;7.78;100.00;96758.00;4933572;28;20099;-77
2023/03/09 04:36:55;;;;;;;4.95;1.20;;;;;;;7.94;100.00;96789.59;4944564;28;20055;-76
2023/03/09 04:39:20;;;;;;;1.15;0.20;;;;;;;8.03;100.00;96806.22;4934343;28;20541;-75
2023/03/09 04:41:46;;;;;;;2.65;0.50;;;;;;;7.93;100.00;96804.09;4919565;29;20511;-75
2023/03/09 04:44:11;;;;;;;3.30;0.35;;;;;;;8.04;100.00;96806.00;4949787;29;20028;-75
2023/03/09 04:46:36;;;;;;;6.05;0.75;;;;;;;8.01;100.00;96795.66;4934847;28;20134;-75
2023/03/09 04:49:02;;;;;;;4.30;0.82;;;;;;;8.09;100.00;96824.13;4938299;29;20058;-81
2023/03/09 04:51:29;;;;;;;4.38;0.63;;;;;;;8.13;100.00;96831.50;4938151;29;20443;-79
2023/03/09 04:53:55;;;;;;;9.10;1.00;;;;;;;8.12;100.00;96829.88;4934942;28;20039;-76
2023/03/09 04:56:20;;;;;;;5.68;0.52;;;;;;;8.07;100.00;96816.28;4933622;28;20062;-76
2023/03/09 04:58:46;;;;;;;3.00;0.47;;;;;;;8.15;100.00;96846.59;4930851;28;20034;-78
2023/03/09 05:01:11;;;;;;;5.32;0.52;;;;;;;8.19;100.00;96839.69;4943239;28;20046;-78
2023/03/09 05:03:38;;;;;;;2.78;0.57;;;;;;;8.18;100.00;96856.91;4929962;28;20124;-79
2023/03/09 05:06:04;;;;;;;11.98;0.75;;;;;;;8.14;100.00;96853.84;4927209;29;20035;-79
2023/03/09 05:08:29;;;;;;;4.55;0.75;;;;;;;8.16;100.00;96865.22;4923262;28;20015;-83
2023/03/09 05:10:55;;;;;;;3.42;0.95;;;;;;;8.16;100.00;96867.09;4946397;28;20109;-79
2023/03/09 05:13:20;;;;;;;8.55;1.80;;;;;;;8.07;100.00;96854.00;4960139;28;20042;-80
2023/03/09 05:15:45;;;;;;;8.43;0.65;;;;;;;8.21;100.00;96869.91;4933916;28;20089;-76
2023/03/09 05:18:11;;;;;;;6.78;0.70;;;;;;;8.16;100.00;96861.72;4924095;28;20028;-78
2023/03/09 05:20:37;;;;;;;7.00;0.80;;;;;;;8.24;100.00;96889.09;4927352;28;20452;-79
2023/03/09 05:23:03;;;;;;;5.53;1.17;;;;;;;8.22;100.00;96904.66;4925608;28;20114;-78
2023/03/09 05:25:29;;;;;;;10.50;0.90;;;;;;;8.20;100.00;96905.97;4929068;29;20119;-77
2023/03/09 05:27:54;;;;;;;8.05;1.10;;;;;;;8.11;100.00;96897.41;4937168;28;20024;-80
2023/03/09 05:30:20;;;;;;;8.55;1.23;;;;;;;8.04;100.00;96911.03;4920068;29;20031;-80
2023/03/09 05:32:46;;;;;;;6.13;0.70;;;;;;;7.82;100.00;96888.41;4929233;29;20024;-78
2023/03/09 05:35:12;;;;;;;5.80;1.05;;;;;;;8.05;100.00;96918.03;4940139;28;20057;-80
2023/03/09 05:37:38;;;;;;;4.38;0.88;;;;;;;8.11;100.00;96944.03;4928970;28;20035;-79
2023/03/09 05:40:04;;;;;;;4.40;1.15;;;;;;;8.12;100.00;96942.13;4927328;28;20035;-76
2023/03/09 05:42:30;;;;;;;5.85;1.38;;;;;;;8.03;100.00;96952.44;4937099;29;20032;-80
2023/03/09 05:44:56;;;;;;;7.47;0.90;;;;;;;8.07;100.00;96950.94;4935177;29;20435;-78
2023/03/09 05:47:21;;;;;;;15.05;1.42;;;;;;;8.06;100.00;96943.91;4932921;28;20063;-76
2023/03/09 05:49:48;;;;;;;5.45;1.13;;;;;;;8.20;100.00;96971.47;4932110;29;20028;-78
2023/03/09 05:52:13;;;;;;;5.72;0.90;;;;;;;8.00;100.00;96954.81;4944825;28;20058;-80
2023/03/09 05:54:39;;;;;;;5.75;1.55;;;;;;;8.10;100.00;96974.72;4948703;28;20035;-74
2023/03/09 05:57:04;;;;;;;4.30;1.00;;;;;;;8.19;100.00;96985.16;4945895;29;20032;-74
2023/03/09 05:59:29;;;;;;;3.17;0.75;;;;;;;8.10;100.00;96965.81;4950082;28;20064;-75
2023/03/09 06:01:55;;;;;;;6.00;1.02;;;;;;;8.13;100.00;96966.16;4934400;28;20024;-79
2023/03/09 06:04:20;;;;;;;10.32;1.33;;;;;;;8.20;100.00;96970.59;4925757;29;20520;-80
2023/03/09 06:06:45;;;;;;;5.55;1.00;;;;;;;8.28;100.00;96972.97;4928872;28;20074;-74
2023/03/09 06:09:11;;;;;;;7.85;0.60;;;;;;;8.36;100.00;96972.63;4926969;28;20059;-74
2023/03/09 06:11:36;;;;;;;5.10;0.85;;;;;;;8.37;100.00;96971.56;4928765;28;20027;-74
2023/03/09 06:14:01;;;;;;;4.00;0.95;;;;;;;8.30;100.00;96960.06;4930107;28;20020;-74
2023/03/09 06:16:27;;;;;;;5.13;0.70;;;;;;;8.48;100.00;96973.47;4926266;29;20043;-71
2023/03/09 06:18:55;;;;;;;6.07;1.30;;;;;;;8.43;100.00;96978.72;4921052;28;20032;-72
2023/03/09 06:21:20;;;;;;;5.90;0.90;;;;;;;8.54;100.00;96988.72;4928238;28;20066;-72
2023/03/09 06:23:45;;;;;;;4.93;1.20;;;;;;;8.62;100.00;97005.56;4929506;28;20056;-72
2023/03/09 06:26:12;;;;;;;7.13;0.88;;;;;;;8.73;100.00;96999.38;4923457;28;20106;-71
2023/03/09 06:28:38;;;;;;;7.40;0.93;;;;;;;8.60;100.00;96984.25;4932707;28;20030;-77
2023/03/09 06:31:11;;;;;;;5.65;1.42;;;;;;;8.57;100.00;96987.44;4935047;29;20114;-79
2023/03/09 06:33:37;;;;;;;3.15;1.00;;;;;;;8.71;100.00;96993.38;4938187;28;20089;-75
2023/03/09 06:36:02;;;;;;;6.88;1.58;;;;;;;8.75;100.00;96995.38;4929046;29;20115;-77
2023/03/09 06:38:28;;;;;;;10.02;1.33;;;;;;;8.76;100.00;96994.31;4928027;28;20042;-79
2023/03/09 06:40:54;;;;;;;6.63;1.30;;;;;;;8.80;100.00;97008.13;4929427;28;20538;-79
2023/03/09 06:43:20;;;;;;;7.95;1.20;;;;;;;8.71;100.00;97010.38;4930025;29;20040;-79
2023/03/09 06:45:46;;;;;;;16.20;1.52;;;;;;;8.77;100.00;97009.41;4934084;28;20021;-76
2023/03/09 06:48:11;;;;;;;12.15;2.33;;;;;;;8.91;100.00;96998.41;4944243;28;20059;-79
2023/03/09 06:50:36;;;;;;;7.47;1.00;;;;;;;9.05;100.00;97012.44;4940552;29;20027;-77
2023/03/09 06:53:02;;;;;;;5.38;1.20;;;;;;;9.10;100.00;97015.25;4926059;29;20032;-77
2023/03/09 06:55:28;;;;;;;5.35;1.52;;;;;;;9.12;100.00;97019.34;4931146;28;20535;-78
2023/03/09 06:57:53;;;;;;;5.97;1.70;;;;;;;9.14;100.00;97016.41;4929141;28;20059;-80
2023/03/09 07:00:19;;;;;;;6.13;1.20;;;;;;;9.19;100.00;97022.72;4937933;28;20063;-80
2023/03/09 07:02:44;;;;;;;7.22;1.27;;;;;;;9.30;100.00;97026.47;4938431;28;20123;-78
2023/03/09 07:05:10;;;;;;;6.95;1.73;;;;;;;9.46;100.00;97029.47;4931965;28;20035;-74
2023/03/09 07:07:35;;;;;;;15.55;1.50;;;;;;;9.61;100.00;97033.28;4925734;28;20086;-73
2023/03/09 07:10:01;;;;;;;7.20;1.40;;;;;;;9.63;100.00;97035.75;4921696;29;20024;-74
2023/03/09 07:12:26;;;;;;;7.38;1.35;;;;;;;9.60;100.00;97038.94;4916941;28;20540;-74
2023/03/09 07:14:51;;;;;;;9.23;1.35;;;;;;;9.60;100.00;97049.72;4949448;28;20046;-74
2023/03/09 07:17:17;;;;;;;6.35;1.20;;;;;;;9.67;100.00;97050.41;4919240;28;20503;-74
2023/03/09 07:19:42;;;;;;;9.57;2.33;;;;;;;9.80;100.00;97055.53;4927223;28;20032;-74
2023/03/09 07:22:09;;;;;;;8.55;2.00;;;;;;;10.04;100.00;97077.03;4940177;28;20048;-74
2023/03/09 07:24:35;;;;;;;5.63;1.15;;;;;;;10.22;100.00;97057.09;4925834;28;20040;-74
2023/03/09 07:27:00;;;;;;;5.40;1.10;;;;;;;10.27;100.00;97052.63;4928906;28;20182;-74
2023/03/09 07:29:25;;;;;;;9.40;1.10;;;;;;;10.41;100.00;97052.31;4923220;28;20082;-74
2023/03/09 07:31:51;;;;;;;6.10;1.30;;;;;;;10.51;100.00;97064.09;4926573;28;20556;-75
2023/03/09 07:34:16;;;;;;;7.22;1.38;;;;;;;10.97;100.00;97063.97;4932068;28;20040;-76
2023/03/09 07:36:41;;;;;;;7.88;1.20;;;;;;;10.81;100.00;97070.22;4932670;28;20036;-77
2023/03/09 07:39:07;;;;;;;3.95;0.70;;;;;;;10.50;100.00;97067.03;4932373;28;20461;-79
2023/03/09 07:42:11;;;;;;;9.88;1.48;;;;;;;10.24;100.00;97077.41;4938276;28;20051;-79
2023/03/09 07:44:36;;;;;;;7.85;1.65;;;;;;;10.26;100.00;97090.66;4944589;28;20028;-77
2023/03/09 07:47:02;;;;;;;7.45;1.52;;;;;;;10.14;100.00;97095.28;4949540;28;20125;-77
2023/03/09 07:49:27;;;;;;;7.40;1.38;;;;;;;10.17;100.00;97094.84;4917399;28;20031;-76
2023/03/09 07:51:56;;;;;;;10.98;1.55;;;;;;;10.14;100.00;97073.69;4922021;28;20093;-79
2023/03/09 07:54:21;;;;;;;7.03;1.10;;;;;;;10.41;100.00;97090.16;4935909;29;20031;-79
2023/03/09 07:56:50;;;;;;;8.52;1.23;;;;;;;10.36;100.00;97079.25;4938240;28;20572;-79
2023/03/09 07:59:17;;;;;;;4.82;1.20;;;;;;;10.59;100.00;97108.03;4942260;28;20062;-78
2023/03/09 08:01:42;;;;;;;10.40;1.42;;;;;;;10.61;100.00;97076.97;4932382;29;20031;-78
2023/03/09 08:04:08;;;;;;;5.97;0.80;;;;;;;11.03;100.00;97100.03;4942438;28;20560;-81
2023/03/09 08:06:33;;;;;;;6.72;1.10;;;;;;;11.04;100.00;97099.00;4958272;23;20043;-71
2023/03/09 08:09:01;;;;;;;3.03;0.80;;;;;;;11.07;100.00;97106.59;4948521;29;20054;-70
2023/03/09 08:11:26;;;;;;;6.00;0.90;;;;;;;10.89;100.00;97105.78;4943664;28;20058;-71
2023/03/09 08:13:52;;;;;;;7.88;0.82;;;;;;;11.05;100.00;97109.53;4949028;29;20470;-70
2023/03/09 08:16:17;;;;;;;4.55;0.80;;;;;;;10.94;100.00;97113.19;4949447;28;20475;-70
2023/03/09 08:18:43;;;;;;;8.43;1.23;;;;;;;11.16;100.00;97127.59;4943745;28;20494;-70
2023/03/09 08:21:11;;;;;;;8.00;1.02;;;;;;;11.02;100.00;97118.16;4959976;29;20050;-70
2023/03/09 08:23:39;;;;;;;8.25;0.90;;;;;;;10.96;100.00;97140.81;4959229;28;20028;-69
2023/03/09 08:26:06;;;;;;;4.80;0.77;;;;;;;11.17;100.00;97134.63;4952581;28;20475;-69
2023/03/09 08:28:32;;;;;;;5.75;0.90;;;;;;;11.22;100.00;97130.38;4948799;29;20028;-69
2023/03/09 08:30:57;;;;;;;3.80;0.70;;;;;;;11.26;100.00;97153.16;4948293;28;20023;-69
2023/03/09 08:33:23;;;;;;;6.72;0.98;;;;;;;11.19;100.00;97158.75;4950630;28;20126;-70
2023/03/09 08:35:48;;;;;;;7.43;1.13;;;;;;;11.01;100.00;97162.53;4950353;29;20081;-70
2023/03/09 08:38:13;;;;;;;4.63;1.35;;;;;;;10.95;100.00;97179.75;4963234;28;20035;-69
2023/03/09 08:40:39;;;;;;;5.68;1.10;;;;;;;10.82;100.00;97183.63;4944732;28;20035;-65
2023/03/09 08:43:05;;;;;;;8.48;1.08;;;;;;;10.78;100.00;97184.34;4949202;28;20035;-65
2023/03/09 08:45:31;;;;;;;7.70;1.00;;;;;;;10.82;100.00;97197.16;4972849;28;20117;-65
2023/03/09 08:47:56;;;;;;;8.85;1.10;;;;;;;10.92;100.00;97201.88;4967742;28;20127;-65
2023/03/09 08:50:22;;;;;;;7.20;0.73;;;;;;;10.99;100.00;97216.09;4949208;28;20057;-65
2023/03/09 08:52:47;;;;;;;4.03;0.70;;;;;;;11.03;100.00;97224.53;4944071;29;20054;-65
2023/03/09 08:57:41;;;;;;;5.38;0.93;;;;;;;10.59;100.00;97229.72;4938913;29;20031;-81
2023/03/09 09:00:09;;;;;;;4.85;0.60;;;;;;;10.37;100.00;97234.97;4941766;28;20046;-74
2023/03/09 09:02:35;;;;;;;5.50;1.10;;;;;;;10.51;100.00;97247.16;4951836;28;20258;-75
2023/03/09 09:05:01;;;;;;;6.50;1.10;;;;;;;10.92;100.00;97218.13;4952357;28;20078;-75
2023/03/09 09:07:28;;;;;;;6.05;0.98;;;;;;;11.22;100.00;97242.19;4945702;28;20032;-75
2023/03/09 09:09:54;;;;;;;8.70;1.83;;;;;;;10.95;100.00;97207.66;4928034;29;20054;-77
2023/03/09 09:12:20;;;;;;;5.72;1.25;;;;;;;11.27;100.00;97234.16;4953134;28;20047;-81
2023/03/09 09:14:45;;;;;;;7.30;1.10;;;;;;;11.22;100.00;97217.81;4947981;28;20028;-76
2023/03/09 09:17:11;;;;;;;3.20;0.77;;;;;;;11.04;100.00;97254.06;4940920;28;20032;-74
2023/03/09 09:19:40;;;;;;;4.45;0.55;;;;;;;11.22;100.00;97249.50;4953525;28;20462;-74
2023/03/09 09:22:05;;;;;;;9.60;1.80;;;;;;;11.11;100.00;97216.03;4948345;28;20065;-80
2023/03/09 09:24:35;;;;;;;8.15;0.90;;;;;;;11.05;100.00;97234.03;4964072;28;20528;-87
2023/03/09 09:27:00;;;;;;;4.43;0.60;;;;;;;11.05;100.00;97244.88;4945669;28;20046;-77
2023/03/09 09:29:26;;;;;;;4.10;0.60;;;;;;;11.12;100.00;97267.19;4963996;28;20036;-75
2023/03/09 09:31:52;;;;;;;5.28;0.80;;;;;;;11.17;100.00;97259.16;4953682;28;20032;-78
2023/03/09 09:34:18;;;;;;;4.68;0.50;;;;;;;11.12;100.00;97250.13;4938116;29;20500;-78
2023/03/09 09:36:44;;;;;;;6.75;1.00;;;;;;;11.35;100.00;97244.56;4933654;29;20061;-78
2023/03/09 09:39:12;;;;;;;3.58;0.65;;;;;;;11.51;100.00;97255.63;4932890;29;20031;-79
2023/03/09 09:41:37;;;;;;;3.92;0.60;;;;;;;11.61;100.00;97253.09;4932613;29;20515;-78
2023/03/09 09:44:08;;;;;;;5.97;0.60;;;;;;;11.47;100.00;97268.84;4936034;28;20046;-79
2023/03/09 09:46:35;;;;;;;3.95;0.88;;;;;;;11.59;100.00;97266.88;4936110;29;20050;-81
2023/03/09 09:49:03;;;;;;;3.85;0.73;;;;;;;11.78;100.00;97263.88;4940887;28;20032;-79
2023/03/09 09:51:40;;;;;;;1.15;0.40;;;;;;;12.06;100.00;97281.94;4938521;28;20099;-80
2023/03/09 09:54:26;;;;;;;4.93;0.80;;;;;;;12.12;100.00;97250.28;4994547;28;20034;-77
2023/03/09 09:57:02;;;;;;;4.68;0.60;;;;;;;12.69;100.00;97268.88;4937073;29;20112;-81
2023/03/09 09:59:47;;;;;;;5.30;0.95;;;;;;;13.49;100.00;97279.97;4935229;29;20066;-76
2023/03/09 10:02:12;;;;;;;1.92;0.40;;;;;;;13.71;100.00;97290.75;4928048;29;20047;-83
2023/03/09 10:05:05;;;;;;;5.18;0.95;;;;;;;13.19;100.00;97292.19;4938618;28;20153;-78
2023/03/09 10:07:32;;;;;;;2.88;0.68;;;;;;;13.20;100.00;97301.16;4935552;29;20098;-77
2023/03/09 10:10:01;;;;;;;5.05;1.00;;;;;;;12.82;100.00;97290.19;4940192;29;20035;-78
2023/03/09 10:12:27;;;;;;;5.47;0.65;;;;;;;12.48;100.00;97262.41;4938256;28;20146;-78
2023/03/09 10:15:15;;;;;;;4.18;0.52;;;;;;;12.38;100.00;97311.91;4932931;29;20055;-78
2023/03/09 10:18:06;;;;;;;2.97;1.00;;;;;;;12.25;100.00;97313.09;4941708;28;20048;-75
2023/03/09 10:20:43;;;;;;;2.60;0.50;;;;;;;12.01;100.00;97307.06;4919060;29;20032;-74
2023/03/09 10:23:29;;;;;;;2.00;0.50;;;;;;;11.70;100.00;97334.75;4935527;29;20111;-76
2023/03/09 10:26:14;;;;;;;4.20;0.50;;;;;;;11.16;100.00;97313.53;4940987;28;20032;-74
2023/03/09 10:28:44;;;;;;;3.72;0.40;;;;;;;11.10;100.00;97314.50;4932637;29;20063;-74
2023/03/09 10:31:18;;;;;;;3.35;0.60;;;;;;;11.10;100.00;97338.88;4928148;29;20050;-75
2023/03/09 10:33:50;;;;;;;7.10;0.60;;;;;;;10.96;100.00;97325.63;4932358;29;20105;-75
2023/03/09 10:36:23;;;;;;;6.32;0.50;;;;;;;11.40;100.00;97336.72;4932243;29;20098;-74
2023/03/09 10:38:50;;;;;;;2.15;0.68;;;;;;;11.58;100.00;97327.53;4962428;28;20054;-75
2023/03/09 10:41:18;;;;;;;2.67;0.43;;;;;;;11.84;100.00;97322.50;4930417;28;20089;-74
2023/03/09 10:43:45;;;;;;;2.90;0.93;;;;;;;12.03;100.00;97332.03;4931557;28;20035;-75
2023/03/09 10:46:25;;;;;;;5.63;0.95;;;;;;;12.45;100.00;97334.25;4928229;29;20081;-74
2023/03/09 10:49:14;;;;;;;7.47;0.52;;;;;;;12.68;100.00;97305.22;4922201;29;20392;-75
2023/03/09 10:52:00;;;;;;;;;;;;;;;12.76;100.00;97339.22;4926577;28;20020;-72
2023/03/09 10:54:34;;;;;;;1.73;0.38;;;;;;;12.51;100.00;97313.44;4938157;29;19925;-74
2023/03/09 10:56:59;;;;;;;5.32;0.63;;;;;;;12.57;100.00;97338.72;4935526;28;20028;-72
2023/03/09 10:59:27;;;;;;;6.47;0.60;;;;;;;12.60;100.00;97335.50;4920200;29;20585;-73
2023/03/09 11:01:56;;;;;;;2.28;0.55;;;;;;;12.50;100.00;97342.47;4924332;28;20069;-73
2023/03/09 11:04:21;;;;;;;3.88;0.75;;;;;;;12.49;100.00;97337.28;4927611;28;20032;-73
2023/03/09 11:07:02;;;;;;;2.75;0.80;;;;;;;12.31;100.00;97335.66;4930795;28;20134;-73
2023/03/09 11:09:42;;;;;;;3.00;0.50;;;;;;;12.30;100.00;97344.88;4925639;29;20083;-73
2023/03/09 11:12:19;;;;;;;2.38;0.60;;;;;;;12.28;100.00;97331.56;4946860;28;20400;-73
2023/03/09 11:14:56;;;;;;;3.55;0.50;;;;;;;12.33;100.00;97330.81;4934442;29;20381;-73
2023/03/09 11:17:39;;;;;;;1.45;0.40;;;;;;;12.75;100.00;97340.31;4919306;29;20502;-74
2023/03/09 11:20:26;;;;;;;2.55;0.38;;;;;;;13.02;100.00;97333.03;4927552;29;20074;-72
2023/03/09 11:23:13;;;;;;;3.35;0.50;;;;;;;12.87;100.00;97336.38;4944445;28;20046;-73
2023/03/09 11:25:52;;;;;;;3.08;0.60;;;;;;;12.74;100.00;97339.50;4932537;28;20031;-73
2023/03/09 11:28:36;;;;;;;;;;;;;;;13.04;100.00;97336.28;4932361;29;20093;-73
2023/03/09 11:31:02;;;;;;;5.28;0.63;;;;;;;13.23;100.00;97325.06;4934328;29;20360;-74
2023/03/09 11:33:29;;;;;;;4.75;0.60;;;;;;;13.30;100.00;97331.16;4930323;28;20035;-77
2023/03/09 11:35:55;;;;;;;1.80;0.32;;;;;;;13.59;100.00;97327.06;4930400;28;20050;-74
2023/03/09 11:38:22;;;;;;;4.90;0.55;;;;;;;14.17;100.00;97334.56;4931186;29;20463;-74